Cape Magnolia — 3FGP2 — position and weather

sailwx.info

Track history (hours):
 
Tides and Currents Weather Stations Pressure Air Temp Water Temp Dewpoint Dewpoint Depression Visibility Wind Speed Wind Dir Waves Ship Positions

Cape Magnolia

Last reported at 2016-Jul-30 15:19 UTC. Time now 2016-Jul-31 01:40 UTC.
Position N 34°24' E 139°41'.

Length 292 m; draft 16.5 m.

Type: Ship. MMSI: 357427000.

Date/timePositionNaut miles runAvg speedWind from/ knotsBaromVisibWave heightAir tempDewpointWater temp
2016-Jul-30 15:19N 34°24' E 139°41'0 0.5
2016-Jul-30 14:25N 34°24' E 139°42'0 0.4
2016-Jul-30 13:19N 34°25' E 139°42'1 0.2
2016-Jul-30 10:13N 34°25' E 139°42'0 0.3
2016-Jul-30 09:28N 34°25' E 139°43'2 0.6
2016-Jul-30 05:31N 34°25' E 139°45'3 0.6
2016-Jul-30 00:13N 34°26' E 139°49'1 0.6
2016-Jul-29 22:10N 34°27' E 139°50'1 0.6
2016-Jul-29 21:13N 34°27' E 139°51'0 0.5
2016-Jul-29 20:22N 34°27' E 139°51'0 0.3
2016-Jul-29 19:10N 34°26' E 139°52'2 0.4
2016-Jul-29 14:28N 34°25' E 139°53'1 0.7
2016-Jul-29 13:28N 34°25' E 139°54'2 1.0
2016-Jul-29 11:25N 34°23' E 139°55'1 0.9
2016-Jul-29 10:16N 34°22' E 139°55'2 0.6
2016-Jul-29 07:31N 34°20' E 139°55'8 2.5
2016-Jul-29 04:30N 34°22' E 139°47'2 0.7
2016-Jul-29 01:06N 34°24' E 139°48'1 0.3
2016-Jul-28 23:24N 34°24' E 139°48'0 0.2
2016-Jul-28 22:24N 34°24' E 139°48'0 0.3
2016-Jul-28 21:30N 34°24' E 139°49'3 0.5
2016-Jul-28 15:33N 34°23' E 139°52'0 0.4
2016-Jul-28 14:18N 34°22' E 139°52'1 0.7
2016-Jul-28 13:24N 34°22' E 139°53'1 0.8
2016-Jul-28 12:18N 34°22' E 139°53'1 0.7
2016-Jul-28 11:21N 34°21' E 139°54'0 0.1
2016-Jul-28 06:28N 34°22' E 139°54'1010.3
2016-Jul-28 05:32N 34°28' E 139°45'7 0.2
2016-Jul-26 11:31N 34°23' E 139°52'1 0.5
2016-Jul-26 10:31N 34°23' E 139°52'32 1.7
2016-Jul-25 15:32N 34°08' E 139°18'1512.7
2016-Jul-25 14:23N 33°56' E 139°08'  
Track history (hours):
 
Tides and Currents Weather Stations Pressure Air Temp Water Temp Dewpoint Dewpoint Depression Visibility Wind Speed Wind Dir Waves Ship Positions

Cape Magnolia

Last reported at 2016-Jul-30 15:19 UTC. Time now 2016-Jul-31 01:40 UTC.
Position N 34°24' E 139°41'.

Length 292 m; draft 16.5 m.

Type: Ship. MMSI: 357427000.

Date/timePositionNaut miles runAvg speedWind from/ knotsBaromVisibWave heightAir tempDewpointWater temp
2016-Jul-30 15:19N 34°24' E 139°41'0 0.5
2016-Jul-30 14:25N 34°24' E 139°42'0 0.4
2016-Jul-30 13:19N 34°25' E 139°42'1 0.2
2016-Jul-30 10:13N 34°25' E 139°42'0 0.3
2016-Jul-30 09:28N 34°25' E 139°43'2 0.6
2016-Jul-30 05:31N 34°25' E 139°45'3 0.6
2016-Jul-30 00:13N 34°26' E 139°49'1 0.6
2016-Jul-29 22:10N 34°27' E 139°50'1 0.6
2016-Jul-29 21:13N 34°27' E 139°51'0 0.5
2016-Jul-29 20:22N 34°27' E 139°51'0 0.3
2016-Jul-29 19:10N 34°26' E 139°52'2 0.4
2016-Jul-29 14:28N 34°25' E 139°53'1 0.7
2016-Jul-29 13:28N 34°25' E 139°54'2 1.0
2016-Jul-29 11:25N 34°23' E 139°55'1 0.9
2016-Jul-29 10:16N 34°22' E 139°55'2 0.6
2016-Jul-29 07:31N 34°20' E 139°55'8 2.5
2016-Jul-29 04:30N 34°22' E 139°47'2 0.7
2016-Jul-29 01:06N 34°24' E 139°48'1 0.3
2016-Jul-28 23:24N 34°24' E 139°48'0 0.2
2016-Jul-28 22:24N 34°24' E 139°48'0 0.3
2016-Jul-28 21:30N 34°24' E 139°49'3 0.5
2016-Jul-28 15:33N 34°23' E 139°52'0 0.4
2016-Jul-28 14:18N 34°22' E 139°52'1 0.7
2016-Jul-28 13:24N 34°22' E 139°53'1 0.8
2016-Jul-28 12:18N 34°22' E 139°53'1 0.7
2016-Jul-28 11:21N 34°21' E 139°54'0 0.1
2016-Jul-28 06:28N 34°22' E 139°54'1010.3
2016-Jul-28 05:32N 34°28' E 139°45'7 0.2
2016-Jul-26 11:31N 34°23' E 139°52'1 0.5
2016-Jul-26 10:31N 34°23' E 139°52'32 1.7
2016-Jul-25 15:32N 34°08' E 139°18'1512.7
2016-Jul-25 14:23N 33°56' E 139°08'  

Dump ship's entire track history